Oriental Freesia — ZGCD7 — position and weather

sailwx.info

Track history (hours):
 
Tides and Currents Weather Stations Pressure Air Temp Water Temp Dewpoint Dewpoint Depression Visibility Wind Speed Wind Dir Waves Ship Positions

Oriental Freesia

Last reported at 2015-Feb-14 05:33 UTC. Time now 2015-Mar-03 16:41 UTC.
Position N 37°30' E 025°53'.
Warning: this ship's position is 17 days out of date.

Length 134 m; draft 8.7 m.

Type: Ship (hazmat cat A). MMSI: 319349000.

Date/timePositionNaut miles runAvg speedWind from/ knotsBaromVisibWave heightAir tempDewpointWater temp
2015-Feb-14 05:33N 37°30' E 025°53'  
2015-Feb-11 08:32N 46°36' E 031°46'9 8.9
2015-Feb-11 07:33N 46°41' E 031°56'9 8.6
2015-Feb-11 06:33N 46°50' E 031°56'7 7.4
2015-Feb-11 05:33N 46°57' E 032°00'0 0.1
2015-Feb-11 04:32N 46°57' E 031°60'0 0.0
2015-Feb-11 03:32N 46°57' E 031°60'0 0.0
2015-Feb-11 02:32N 46°57' E 031°60'0 0.0
2015-Feb-11 01:32N 46°57' E 031°60'0 0.0
2015-Feb-11 00:32N 46°57' E 031°60'0 0.0
2015-Feb-10 23:32N 46°57' E 031°60'0 0.0
2015-Feb-10 22:32N 46°57' E 031°60'0 0.0
2015-Feb-10 21:32N 46°57' E 031°60'0 0.0
2015-Feb-10 18:32N 46°57' E 031°60'0 0.0
2015-Feb-10 17:32N 46°57' E 031°60'0 0.0
2015-Feb-10 16:32N 46°57' E 031°60'0 0.0
2015-Feb-10 15:32N 46°57' E 031°60'0 0.0
2015-Feb-10 14:32N 46°57' E 031°60'0 0.0
2015-Feb-10 13:32N 46°57' E 031°60'0 0.0
2015-Feb-10 12:32N 46°57' E 031°60'0 0.0
2015-Feb-10 11:32N 46°57' E 031°60'0 0.0
2015-Feb-10 10:32N 46°57' E 031°60'0 0.0
2015-Feb-10 09:32N 46°57' E 031°60'0 0.0
2015-Feb-10 08:32N 46°57' E 031°60'0 0.0
2015-Feb-10 07:32N 46°57' E 031°60'0 0.0
2015-Feb-10 06:32N 46°57' E 031°60'0 0.0
2015-Feb-10 05:32N 46°57' E 031°60'0 0.0
2015-Feb-10 04:32N 46°57' E 031°60'0 0.0
2015-Feb-10 03:32N 46°57' E 031°60'0 0.0
2015-Feb-10 02:32N 46°57' E 031°60'0 0.0
2015-Feb-10 01:32N 46°57' E 031°60'0 0.0
2015-Feb-10 00:32N 46°57' E 031°60'0 0.0
2015-Feb-09 23:32N 46°57' E 031°60'0 0.0
2015-Feb-09 22:32N 46°57' E 031°60'0 0.0
2015-Feb-09 21:32N 46°57' E 031°60'0 0.0
2015-Feb-09 20:32N 46°57' E 031°60'0 0.0
2015-Feb-09 19:32N 46°57' E 031°60'0 0.0
2015-Feb-09 18:32N 46°57' E 031°60'0 0.0
2015-Feb-09 17:32N 46°57' E 031°60'0 0.0
2015-Feb-09 16:32N 46°57' E 031°60'0 0.0
2015-Feb-09 15:32N 46°57' E 031°60'0 0.0
2015-Feb-09 14:32N 46°57' E 031°60'0 0.0
2015-Feb-09 13:32N 46°57' E 031°60'0 0.0
2015-Feb-09 12:32N 46°57' E 031°60'0 0.0
2015-Feb-09 11:32N 46°57' E 031°60'0 0.0
2015-Feb-09 10:32N 46°57' E 031°60'0 0.0
2015-Feb-09 09:32N 46°57' E 031°60'0 0.0
2015-Feb-09 08:32N 46°57' E 031°60'0 0.0
2015-Feb-09 07:32N 46°57' E 031°60'0 0.0
2015-Feb-09 06:32N 46°57' E 031°60'0 0.0
2015-Feb-09 05:32N 46°57' E 031°60'0 0.0
2015-Feb-09 04:32N 46°57' E 031°60'0 0.0
2015-Feb-09 03:32N 46°57' E 031°60'0 0.0
2015-Feb-09 02:32N 46°57' E 031°60'0 0.0
2015-Feb-09 01:32N 46°57' E 031°60'0 0.0
2015-Feb-09 00:34N 46°57' E 031°60'5 4.7
2015-Feb-08 23:33N 46°52' E 031°59'9 9.1
2015-Feb-08 22:33N 46°43' E 031°56'10 9.9
2015-Feb-08 21:34N 46°36' E 031°47'330 9.9
2015-Feb-07 12:24N 41°24' E 029°19'6 7.5
2015-Feb-07 11:33N 41°19' E 029°13'  
Track history (hours):
 
Tides and Currents Weather Stations Pressure Air Temp Water Temp Dewpoint Dewpoint Depression Visibility Wind Speed Wind Dir Waves Ship Positions

Oriental Freesia

Last reported at 2015-Feb-14 05:33 UTC. Time now 2015-Mar-03 16:41 UTC.
Position N 37°30' E 025°53'.
Warning: this ship's position is 17 days out of date.

Length 134 m; draft 8.7 m.

Type: Ship (hazmat cat A). MMSI: 319349000.

Date/timePositionNaut miles runAvg speedWind from/ knotsBaromVisibWave heightAir tempDewpointWater temp
2015-Feb-14 05:33N 37°30' E 025°53'  
2015-Feb-11 08:32N 46°36' E 031°46'9 8.9
2015-Feb-11 07:33N 46°41' E 031°56'9 8.6
2015-Feb-11 06:33N 46°50' E 031°56'7 7.4
2015-Feb-11 05:33N 46°57' E 032°00'0 0.1
2015-Feb-11 04:32N 46°57' E 031°60'0 0.0
2015-Feb-11 03:32N 46°57' E 031°60'0 0.0
2015-Feb-11 02:32N 46°57' E 031°60'0 0.0
2015-Feb-11 01:32N 46°57' E 031°60'0 0.0
2015-Feb-11 00:32N 46°57' E 031°60'0 0.0
2015-Feb-10 23:32N 46°57' E 031°60'0 0.0
2015-Feb-10 22:32N 46°57' E 031°60'0 0.0
2015-Feb-10 21:32N 46°57' E 031°60'0 0.0
2015-Feb-10 18:32N 46°57' E 031°60'0 0.0
2015-Feb-10 17:32N 46°57' E 031°60'0 0.0
2015-Feb-10 16:32N 46°57' E 031°60'0 0.0
2015-Feb-10 15:32N 46°57' E 031°60'0 0.0
2015-Feb-10 14:32N 46°57' E 031°60'0 0.0
2015-Feb-10 13:32N 46°57' E 031°60'0 0.0
2015-Feb-10 12:32N 46°57' E 031°60'0 0.0
2015-Feb-10 11:32N 46°57' E 031°60'0 0.0
2015-Feb-10 10:32N 46°57' E 031°60'0 0.0
2015-Feb-10 09:32N 46°57' E 031°60'0 0.0
2015-Feb-10 08:32N 46°57' E 031°60'0 0.0
2015-Feb-10 07:32N 46°57' E 031°60'0 0.0
2015-Feb-10 06:32N 46°57' E 031°60'0 0.0
2015-Feb-10 05:32N 46°57' E 031°60'0 0.0
2015-Feb-10 04:32N 46°57' E 031°60'0 0.0
2015-Feb-10 03:32N 46°57' E 031°60'0 0.0
2015-Feb-10 02:32N 46°57' E 031°60'0 0.0
2015-Feb-10 01:32N 46°57' E 031°60'0 0.0
2015-Feb-10 00:32N 46°57' E 031°60'0 0.0
2015-Feb-09 23:32N 46°57' E 031°60'0 0.0
2015-Feb-09 22:32N 46°57' E 031°60'0 0.0
2015-Feb-09 21:32N 46°57' E 031°60'0 0.0
2015-Feb-09 20:32N 46°57' E 031°60'0 0.0
2015-Feb-09 19:32N 46°57' E 031°60'0 0.0
2015-Feb-09 18:32N 46°57' E 031°60'0 0.0
2015-Feb-09 17:32N 46°57' E 031°60'0 0.0
2015-Feb-09 16:32N 46°57' E 031°60'0 0.0
2015-Feb-09 15:32N 46°57' E 031°60'0 0.0
2015-Feb-09 14:32N 46°57' E 031°60'0 0.0
2015-Feb-09 13:32N 46°57' E 031°60'0 0.0
2015-Feb-09 12:32N 46°57' E 031°60'0 0.0
2015-Feb-09 11:32N 46°57' E 031°60'0 0.0
2015-Feb-09 10:32N 46°57' E 031°60'0 0.0
2015-Feb-09 09:32N 46°57' E 031°60'0 0.0
2015-Feb-09 08:32N 46°57' E 031°60'0 0.0
2015-Feb-09 07:32N 46°57' E 031°60'0 0.0
2015-Feb-09 06:32N 46°57' E 031°60'0 0.0
2015-Feb-09 05:32N 46°57' E 031°60'0 0.0
2015-Feb-09 04:32N 46°57' E 031°60'0 0.0
2015-Feb-09 03:32N 46°57' E 031°60'0 0.0
2015-Feb-09 02:32N 46°57' E 031°60'0 0.0
2015-Feb-09 01:32N 46°57' E 031°60'0 0.0
2015-Feb-09 00:34N 46°57' E 031°60'5 4.7
2015-Feb-08 23:33N 46°52' E 031°59'9 9.1
2015-Feb-08 22:33N 46°43' E 031°56'10 9.9
2015-Feb-08 21:34N 46°36' E 031°47'330 9.9
2015-Feb-07 12:24N 41°24' E 029°19'6 7.5
2015-Feb-07 11:33N 41°19' E 029°13'  

Dump ship's entire track history